Weldon, Iowa
Current Conditions -  °F | °C
As of 1:15 PM on Thursday 30 Oct 2014 (Local Time) from KI75 Reporting Station
Clear Clear  
Wind Chill: 60°   Ceiling: Unl
Heat Index: 60°   Visibility: 10mi
Dew Point: 41°   Wind: 0mph
Humidity: 49%   Direction: NA
Pressure: 30"   Gusts: NA
Location:  40.9°N, 93.73°W
Report Text: KI75 301815Z AUTO 00000KT 10SM CLR 16/05 A3000 RMK AO2 T01560048
Loading
Personal Weather Stations






























Interactive Weather Map
Tropical Storm Tracking
New forecast layout! Learn more

10-Day Weather Forecast

Advertisements
Track Severe Weather on mobile